Time;durP1;ratioP1;P1;durP2;ratioP2;P2;SDS_P1;SDS_P2;PMS_P1;PMS_P2;Temp;Humidity;BMP_temperature;BMP_pressure;BME280_temperature;BME280_humidity;BME280_pressure;Samples;Min_cycle;Max_cycle;Signal;HPM_P1;HPM_P2
2022/05/23 00:00:51;;;;;;;6.60;3.67;;;;;;;;;;8252448;28;20116;-87
2022/05/23 00:04:55;;;;;;;9.52;4.03;;;;;;;;;;8260656;28;20406;-87
2022/05/23 00:08:57;;;;;;;9.00;3.90;;;;;;;;;;8266788;28;20050;-83
2022/05/23 00:13:03;;;;;;;8.50;3.70;;;;;;;;;;8266238;28;20042;-83
2022/05/23 00:17:09;;;;;;;7.55;3.90;;;;;;;;;;8265924;28;20137;-83
2022/05/23 00:21:21;;;;;;;7.90;3.88;;;;;;;;;;8265675;28;20061;-82
2022/05/23 00:25:26;;;;;;;7.47;3.55;;;;;;;;;;8265888;28;20487;-82
2022/05/23 00:29:32;;;;;;;7.50;3.55;;;;;;;;;;8265882;28;20082;-86
2022/05/23 00:38:05;;;;;;;6.18;3.92;;;;;;;;;;8265521;28;20180;-83
2022/05/23 00:46:33;;;;;;;8.93;3.83;;;;;;;;;;8265946;28;20054;-83
2022/05/23 00:50:37;;;;;;;6.85;3.95;;;;;;;;;;8265269;28;20054;-83
2022/05/23 00:54:45;;;;;;;9.90;4.15;;;;;;;;;;8265215;28;20076;-86
2022/05/23 00:58:49;;;;;;;8.50;4.45;;;;;;;;;;8264934;28;20133;-83
2022/05/23 01:02:56;;;;;;;7.78;4.25;;;;;;;;;;8265299;28;20046;-83
2022/05/23 01:06:59;;;;;;;10.45;4.75;;;;;;;;;;8265013;28;20055;-83
2022/05/23 01:11:04;;;;;;;9.75;5.45;;;;;;;;;;8265400;28;20069;-83
2022/05/23 01:15:18;;;;;;;11.63;5.18;;;;;;;;;;8265120;28;20092;-83
2022/05/23 01:19:20;;;;;;;12.50;4.82;;;;;;;;;;8264765;28;20057;-82
2022/05/23 01:23:34;;;;;;;15.63;5.88;;;;;;;;;;8264702;28;20050;-83
2022/05/23 01:27:40;;;;;;;11.07;5.32;;;;;;;;;;8264973;28;20042;-83
2022/05/23 01:31:44;;;;;;;7.68;5.07;;;;;;;;;;8265451;28;20092;-83
2022/05/23 01:35:47;;;;;;;11.35;5.32;;;;;;;;;;8271432;28;20478;-83
2022/05/23 01:39:49;;;;;;;7.97;4.75;;;;;;;;;;8270797;28;20042;-83
2022/05/23 01:43:54;;;;;;;8.48;4.93;;;;;;;;;;8270859;28;20046;-83
2022/05/23 01:47:57;;;;;;;8.13;4.68;;;;;;;;;;8270653;28;20047;-83
2022/05/23 01:52:00;;;;;;;8.13;4.90;;;;;;;;;;8270983;28;20487;-83
2022/05/23 01:56:04;;;;;;;12.52;5.00;;;;;;;;;;8270977;28;20668;-84
2022/05/23 02:04:30;;;;;;;8.65;5.30;;;;;;;;;;8266117;28;20474;-88
2022/05/23 02:08:33;;;;;;;11.32;5.50;;;;;;;;;;8270313;28;20046;-83
2022/05/23 02:12:35;;;;;;;9.07;5.57;;;;;;;;;;8269751;28;20046;-83
2022/05/23 02:16:40;;;;;;;12.13;6.53;;;;;;;;;;8269630;28;20097;-83
2022/05/23 02:20:42;;;;;;;12.10;5.75;;;;;;;;;;8270082;28;20379;-83
2022/05/23 02:24:45;;;;;;;12.15;5.85;;;;;;;;;;8269956;28;20466;-84
2022/05/23 02:28:47;;;;;;;11.13;5.03;;;;;;;;;;8263120;28;20061;-83
2022/05/23 02:32:53;;;;;;;10.23;4.90;;;;;;;;;;8269196;28;20104;-83
2022/05/23 02:36:56;;;;;;;7.95;4.50;;;;;;;;;;8269625;28;20474;-83
2022/05/23 02:40:58;;;;;;;6.55;4.40;;;;;;;;;;8269626;28;20598;-84
2022/05/23 02:45:01;;;;;;;9.52;5.32;;;;;;;;;;8268905;28;20046;-83
2022/05/23 02:49:06;;;;;;;7.15;4.53;;;;;;;;;;8269465;28;20051;-83
2022/05/23 02:53:08;;;;;;;9.18;4.43;;;;;;;;;;8268815;28;20418;-83
2022/05/23 02:57:11;;;;;;;9.65;4.50;;;;;;;;;;8268664;28;20046;-83
2022/05/23 03:01:14;;;;;;;6.95;4.50;;;;;;;;;;8268509;28;20105;-83
2022/05/23 03:05:18;;;;;;;9.63;4.75;;;;;;;;;;8268786;28;20049;-83
2022/05/23 03:09:21;;;;;;;8.15;4.93;;;;;;;;;;8268745;28;20090;-85
2022/05/23 03:13:24;;;;;;;10.52;4.53;;;;;;;;;;8268544;28;20137;-84
2022/05/23 03:17:26;;;;;;;9.65;5.28;;;;;;;;;;8267869;28;20042;-88
2022/05/23 03:30:12;;;;;;;8.55;4.82;;;;;;;;;;8267654;28;20056;-83
2022/05/23 03:34:15;;;;;;;11.07;5.25;;;;;;;;;;8267352;28;20046;-84
2022/05/23 03:38:20;;;;;;;9.48;5.38;;;;;;;;;;8267299;28;20050;-83
2022/05/23 03:42:22;;;;;;;11.15;5.30;;;;;;;;;;8267540;28;20051;-83
2022/05/23 03:46:25;;;;;;;7.95;4.70;;;;;;;;;;8267108;28;20046;-84
2022/05/23 03:50:30;;;;;;;9.70;4.78;;;;;;;;;;8261297;28;20046;-84
2022/05/23 03:54:34;;;;;;;10.13;5.10;;;;;;;;;;8266808;28;20414;-83
2022/05/23 03:58:37;;;;;;;8.38;5.65;;;;;;;;;;8266318;28;20061;-83
2022/05/23 04:02:40;;;;;;;12.77;5.38;;;;;;;;;;8266473;28;20046;-83
2022/05/23 04:06:43;;;;;;;10.50;6.15;;;;;;;;;;8266322;28;20061;-83
2022/05/23 04:10:47;;;;;;;10.98;7.03;;;;;;;;;;8266144;28;20093;-86
2022/05/23 04:14:49;;;;;;;17.02;7.70;;;;;;;;;;8266171;28;20125;-84
2022/05/23 04:18:52;;;;;;;11.98;6.65;;;;;;;;;;8265950;28;20430;-86
2022/05/23 04:22:54;;;;;;;11.48;5.82;;;;;;;;;;8266392;28;20543;-84
2022/05/23 04:26:59;;;;;;;10.82;5.60;;;;;;;;;;8265946;28;20046;-84
2022/05/23 04:31:02;;;;;;;12.32;6.38;;;;;;;;;;8265783;28;20123;-84
2022/05/23 04:35:15;;;;;;;11.75;5.80;;;;;;;;;;8266020;28;20046;-84
2022/05/23 04:39:18;;;;;;;12.93;7.10;;;;;;;;;;8265887;28;20046;-88
2022/05/23 04:43:22;;;;;;;14.65;7.10;;;;;;;;;;8265479;28;20042;-87
2022/05/23 04:51:44;;;;;;;9.35;6.55;;;;;;;;;;8265338;28;20120;-84
2022/05/23 04:55:47;;;;;;;10.40;6.80;;;;;;;;;;8254304;28;20043;-84
2022/05/23 04:59:52;;;;;;;13.40;7.28;;;;;;;;;;8260768;28;20054;-84
2022/05/23 05:03:57;;;;;;;7.63;5.18;;;;;;;;;;8265467;28;20379;-83
2022/05/23 05:08:01;;;;;;;10.32;6.28;;;;;;;;;;8267147;28;20081;-84
2022/05/23 05:12:06;;;;;;;11.00;5.93;;;;;;;;;;8268901;28;20616;-85
2022/05/23 05:16:12;;;;;;;8.95;5.97;;;;;;;;;;8265897;28;20093;-84
2022/05/23 05:20:16;;;;;;;12.23;6.10;;;;;;;;;;8270472;28;20035;-86
2022/05/23 05:24:19;;;;;;;10.93;6.13;;;;;;;;;;8260025;28;20057;-84
2022/05/23 05:28:22;;;;;;;8.52;5.35;;;;;;;;;;8263955;28;20046;-84
2022/05/23 05:32:35;;;;;;;7.82;5.38;;;;;;;;;;8266134;28;20043;-84
2022/05/23 05:36:42;;;;;;;8.90;5.35;;;;;;;;;;8270605;28;20046;-83
2022/05/23 05:40:49;;;;;;;9.30;5.53;;;;;;;;;;8257226;28;20474;-86
2022/05/23 05:44:58;;;;;;;7.80;4.70;;;;;;;;;;8256690;28;20050;-86
2022/05/23 05:49:07;;;;;;;6.90;3.92;;;;;;;;;;8268291;28;20142;-85
2022/05/23 05:53:12;;;;;;;6.25;4.18;;;;;;;;;;8262639;28;20043;-85
2022/05/23 05:57:15;;;;;;;14.25;9.05;;;;;;;;;;8262771;28;20049;-83
2022/05/23 06:01:18;;;;;;;5.40;3.63;;;;;;;;;;8251674;28;20058;-86
2022/05/23 06:05:24;;;;;;;6.15;3.60;;;;;;;;;;8256928;28;20043;-87
2022/05/23 06:13:53;;;;;;;6.60;3.40;;;;;;;;;;8261553;28;20046;-87
2022/05/23 06:17:57;;;;;;;5.68;3.13;;;;;;;;;;8266031;28;20141;-85
2022/05/23 06:22:01;;;;;;;7.05;3.53;;;;;;;;;;8268952;28;20088;-86
2022/05/23 06:26:04;;;;;;;6.30;3.13;;;;;;;;;;8263579;28;20054;-85
2022/05/23 06:30:09;;;;;;;6.38;2.95;;;;;;;;;;8257220;28;20049;-86
2022/05/23 06:34:12;;;;;;;5.03;2.92;;;;;;;;;;8266002;28;20053;-85
2022/05/23 06:38:17;;;;;;;5.43;2.90;;;;;;;;;;8261772;28;20050;-86
2022/05/23 06:42:20;;;;;;;5.35;2.80;;;;;;;;;;8264597;28;20042;-86
2022/05/23 06:46:23;;;;;;;5.07;2.78;;;;;;;;;;8267440;28;20414;-85
2022/05/23 06:50:26;;;;;;;5.47;2.63;;;;;;;;;;8267894;28;20050;-84
2022/05/23 06:54:31;;;;;;;5.03;2.70;;;;;;;;;;8269120;28;20479;-85
2022/05/23 06:58:34;;;;;;;5.50;2.53;;;;;;;;;;8268386;28;20051;-84
2022/05/23 07:02:37;;;;;;;4.32;2.15;;;;;;;;;;8262435;28;20046;-84
2022/05/23 07:15:23;;;;;;;4.47;2.33;;;;;;;;;;8267195;28;20042;-84
2022/05/23 07:19:26;;;;;;;4.30;2.50;;;;;;;;;;8268339;28;20061;-84
2022/05/23 07:23:28;;;;;;;6.25;2.92;;;;;;;;;;8267772;28;20093;-83
2022/05/23 07:27:32;;;;;;;4.00;2.30;;;;;;;;;;8268231;28;20046;-84
2022/05/23 07:31:35;;;;;;;4.88;2.40;;;;;;;;;;8266665;28;20133;-83
2022/05/23 07:35:38;;;;;;;10.32;3.92;;;;;;;;;;8267346;28;20057;-87
2022/05/23 07:39:41;;;;;;;6.15;3.88;;;;;;;;;;8267058;28;20055;-85
2022/05/23 07:43:45;;;;;;;14.05;5.70;;;;;;;;;;8267133;28;20046;-84
2022/05/23 07:47:48;;;;;;;7.78;4.00;;;;;;;;;;8261082;28;20092;-85
2022/05/23 07:51:53;;;;;;;8.10;4.40;;;;;;;;;;8267419;28;20076;-84
2022/05/23 08:00:33;;;;;;;6.63;3.20;;;;;;;;;;8266260;28;20419;-86
2022/05/23 08:04:36;;;;;;;5.40;3.20;;;;;;;;;;8266511;28;20058;-83
2022/05/23 08:08:39;;;;;;;6.30;3.38;;;;;;;;;;8267006;28;20062;-84
2022/05/23 08:12:47;;;;;;;5.15;3.08;;;;;;;;;;8266258;28;20055;-84
2022/05/23 08:16:52;;;;;;;5.13;3.00;;;;;;;;;;8266211;28;20410;-87
2022/05/23 08:20:55;;;;;;;5.28;3.20;;;;;;;;;;8266143;28;20088;-85
2022/05/23 08:24:59;;;;;;;5.38;3.28;;;;;;;;;;8265775;28;20050;-85
2022/05/23 08:29:01;;;;;;;5.55;3.00;;;;;;;;;;8266085;28;20450;-85
2022/05/23 08:33:07;;;;;;;5.95;2.40;;;;;;;;;;8266821;28;20509;-87
2022/05/23 08:37:10;;;;;;;4.60;2.30;;;;;;;;;;8266256;28;20050;-87
2022/05/23 08:41:19;;;;;;;4.80;2.53;;;;;;;;;;8265277;28;20050;-86
2022/05/23 08:45:25;;;;;;;4.07;2.25;;;;;;;;;;8260609;28;20100;-85
2022/05/23 08:49:46;;;;;;;9.82;2.28;;;;;;;;;;8265339;28;20042;-85
2022/05/23 08:53:55;;;;;;;5.60;2.08;;;;;;;;;;8265438;28;20490;-85
2022/05/23 08:58:03;;;;;;;4.05;2.38;;;;;;;;;;8264905;28;20076;-85
2022/05/23 09:02:12;;;;;;;6.47;2.33;;;;;;;;;;8265266;28;20046;-87
2022/05/23 09:06:21;;;;;;;5.30;2.47;;;;;;;;;;8265303;28;20061;-85
2022/05/23 09:10:32;;;;;;;3.88;1.90;;;;;;;;;;8265315;28;20051;-86
2022/05/23 09:14:35;;;;;;;;;;;;;;;;;;8265586;28;20073;-84
2022/05/23 09:18:44;;;;;;;4.50;2.05;;;;;;;;;;8264854;28;19976;-85
2022/05/23 09:22:53;;;;;;;3.00;1.95;;;;;;;;;;8265363;28;20057;-86
2022/05/23 09:27:00;;;;;;;4.45;1.77;;;;;;;;;;8264754;28;20104;-87
2022/05/23 09:31:09;;;;;;;3.17;2.10;;;;;;;;;;8264054;28;20426;-87
2022/05/23 09:35:16;;;;;;;4.32;2.17;;;;;;;;;;8237155;28;20089;-86
2022/05/23 09:39:25;;;;;;;5.32;2.03;;;;;;;;;;8251677;28;20042;-85
2022/05/23 09:48:07;;;;;;;3.42;1.85;;;;;;;;;;8236853;28;20054;-86
2022/05/23 09:52:18;;;;;;;3.55;2.22;;;;;;;;;;8250507;28;20459;-86
2022/05/23 09:56:31;;;;;;;2.75;1.80;;;;;;;;;;8257931;28;20052;-87
2022/05/23 10:00:37;;;;;;;5.28;1.80;;;;;;;;;;8253946;28;20058;-86
2022/05/23 10:04:45;;;;;;;2.63;1.88;;;;;;;;;;8264880;28;20065;-87
2022/05/23 10:08:49;;;;;;;3.22;1.85;;;;;;;;;;8267230;28;20046;-85
2022/05/23 10:13:17;;;;;;;5.72;2.05;;;;;;;;;;8267219;28;20208;-85
2022/05/23 10:17:28;;;;;;;2.60;1.92;;;;;;;;;;8262014;28;20068;-88
2022/05/23 10:21:35;;;;;;;4.15;2.33;;;;;;;;;;8269451;28;20561;-85
2022/05/23 10:25:44;;;;;;;4.35;2.10;;;;;;;;;;8270056;28;20479;-86
2022/05/23 10:29:55;;;;;;;2.85;1.98;;;;;;;;;;8269814;28;20129;-86
2022/05/23 10:34:03;;;;;;;4.73;2.20;;;;;;;;;;8269783;28;20050;-87
2022/05/23 10:42:36;;;;;;;7.18;2.50;;;;;;;;;;8269152;28;20053;-85
2022/05/23 10:46:46;;;;;;;3.25;1.98;;;;;;;;;;8269307;28;20402;-86
2022/05/23 10:50:55;;;;;;;9.50;2.20;;;;;;;;;;8268737;28;20070;-87
2022/05/23 10:55:10;;;;;;;2.53;1.85;;;;;;;;;;8263002;28;20478;-87
2022/05/23 10:59:22;;;;;;;4.13;2.00;;;;;;;;;;8241523;28;20528;-89
2022/05/23 11:03:37;;;;;;;4.82;2.25;;;;;;;;;;8258845;28;20048;-88
2022/05/23 11:08:01;;;;;;;3.28;2.10;;;;;;;;;;8255045;28;20085;-87
2022/05/23 11:12:18;;;;;;;5.75;2.55;;;;;;;;;;8263971;28;20057;-87
2022/05/23 11:16:32;;;;;;;5.32;2.33;;;;;;;;;;8246289;28;20129;-89
2022/05/23 11:20:40;;;;;;;5.68;2.10;;;;;;;;;;8258963;28;20113;-86
2022/05/23 11:24:53;;;;;;;5.38;2.42;;;;;;;;;;8262939;28;20430;-85
2022/05/23 11:38:09;;;;;;;3.67;2.40;;;;;;;;;;8259483;28;20078;-86
2022/05/23 11:42:16;;;;;;;4.40;2.20;;;;;;;;;;8258790;28;20062;-86
2022/05/23 11:46:49;;;;;;;2.80;2.03;;;;;;;;;;8248376;28;20056;-87
2022/05/23 11:50:55;;;;;;;2.67;2.00;;;;;;;;;;8246266;28;20049;-86
2022/05/23 11:55:08;;;;;;;3.15;1.95;;;;;;;;;;8239244;28;20517;-86
2022/05/23 11:59:13;;;;;;;2.88;1.80;;;;;;;;;;8253880;28;20105;-86
2022/05/23 12:03:18;;;;;;;2.40;1.90;;;;;;;;;;8258451;28;20050;-86
2022/05/23 12:07:54;;;;;;;3.22;2.00;;;;;;;;;;8262549;28;20165;-87
2022/05/23 12:12:35;;;;;;;33.95;8.05;;;;;;;;;;8218153;28;20137;-85
2022/05/23 12:17:07;;;;;;;25.25;7.38;;;;;;;;;;8238049;28;20161;-86
2022/05/23 12:21:41;;;;;;;2.25;1.90;;;;;;;;;;8261266;28;20414;-86
2022/05/23 12:26:04;;;;;;;4.28;2.22;;;;;;;;;;8261172;28;20061;-86
2022/05/23 12:30:41;;;;;;;5.40;2.15;;;;;;;;;;8260923;28;20047;-86
2022/05/23 12:35:07;;;;;;;2.95;1.95;;;;;;;;;;8261560;28;20540;-86
2022/05/23 12:39:45;;;;;;;5.10;2.20;;;;;;;;;;8260716;28;20061;-86
2022/05/23 12:44:25;;;;;;;3.42;2.30;;;;;;;;;;8260321;28;20137;-86
2022/05/23 12:49:14;;;;;;;3.00;2.00;;;;;;;;;;8259731;28;20418;-86
2022/05/23 12:53:54;;;;;;;3.25;2.00;;;;;;;;;;8254942;28;20399;-85
2022/05/23 12:58:26;;;;;;;6.77;3.07;;;;;;;;;;8258419;28;20165;-86
2022/05/23 13:02:35;;;;;;;2.53;2.10;;;;;;;;;;8253926;28;20635;-84
2022/05/23 13:06:46;;;;;;;4.05;2.05;;;;;;;;;;8253162;28;20061;-85
2022/05/23 13:11:00;;;;;;;3.33;2.10;;;;;;;;;;8248418;28;20062;-85
2022/05/23 13:15:12;;;;;;;4.63;2.10;;;;;;;;;;8254925;28;20105;-85
2022/05/23 13:23:48;;;;;;;2.60;2.03;;;;;;;;;;8255749;28;20063;-85
2022/05/23 13:27:58;;;;;;;2.63;2.25;;;;;;;;;;8248553;28;20050;-84
2022/05/23 13:32:04;;;;;;;3.42;1.80;;;;;;;;;;8266488;28;20136;-84
2022/05/23 13:36:08;;;;;;;3.20;2.13;;;;;;;;;;8268541;28;20076;-86
2022/05/23 13:40:16;;;;;;;1.92;1.73;;;;;;;;;;8262199;28;20093;-85
2022/05/23 13:44:35;;;;;;;3.42;1.85;;;;;;;;;;8261682;28;20054;-84
2022/05/23 13:49:07;;;;;;;6.53;2.35;;;;;;;;;;8266087;28;20401;-86
2022/05/23 13:53:18;;;;;;;4.95;2.03;;;;;;;;;;8255949;28;20529;-86
2022/05/23 13:57:41;;;;;;;3.13;1.83;;;;;;;;;;8262510;28;20133;-85
2022/05/23 14:01:52;;;;;;;3.75;2.10;;;;;;;;;;8265047;28;20410;-86
2022/05/23 14:05:57;;;;;;;2.95;2.40;;;;;;;;;;8270341;28;20471;-87
2022/05/23 14:10:03;;;;;;;3.28;1.90;;;;;;;;;;8265100;28;20057;-87
2022/05/23 14:14:20;;;;;;;2.65;1.75;;;;;;;;;;8268813;28;20042;-84
2022/05/23 14:18:35;;;;;;;3.60;2.00;;;;;;;;;;8269259;28;20054;-86
2022/05/23 14:22:40;;;;;;;2.35;2.08;;;;;;;;;;8269407;28;20054;-86
2022/05/23 14:26:44;;;;;;;4.35;2.13;;;;;;;;;;8268075;28;20042;-85
2022/05/23 14:30:52;;;;;;;4.00;2.05;;;;;;;;;;8262962;28;20053;-86
2022/05/23 14:35:16;;;;;;;2.78;1.88;;;;;;;;;;8265020;28;20053;-86
2022/05/23 14:39:25;;;;;;;2.97;2.10;;;;;;;;;;8258449;28;20553;-84
2022/05/23 14:43:32;;;;;;;3.67;2.03;;;;;;;;;;8262840;28;20076;-85
2022/05/23 14:47:35;;;;;;;3.50;1.90;;;;;;;;;;8260577;28;20062;-84
2022/05/23 14:51:42;;;;;;;2.58;2.00;;;;;;;;;;8267171;28;20235;-84
2022/05/23 14:55:49;;;;;;;2.90;2.15;;;;;;;;;;8268722;28;20053;-84
2022/05/23 15:04:27;;;;;;;2.50;1.80;;;;;;;;;;8253033;28;20054;-85
2022/05/23 15:08:32;;;;;;;2.58;2.00;;;;;;;;;;8268431;28;20494;-87
2022/05/23 15:12:38;;;;;;;2.55;1.80;;;;;;;;;;8268775;28;20553;-87
2022/05/23 15:16:42;;;;;;;3.05;2.00;;;;;;;;;;8268269;28;20407;-82
2022/05/23 15:20:47;;;;;;;3.88;2.20;;;;;;;;;;8267273;28;20050;-82
2022/05/23 15:24:52;;;;;;;5.50;2.03;;;;;;;;;;8267604;28;20494;-83
2022/05/23 15:28:56;;;;;;;2.28;1.88;;;;;;;;;;8267467;28;20644;-84
2022/05/23 15:33:01;;;;;;;3.70;2.20;;;;;;;;;;8267526;28;20054;-85
2022/05/23 15:37:05;;;;;;;6.50;2.28;;;;;;;;;;8268202;28;20050;-85
2022/05/23 15:41:10;;;;;;;4.18;2.22;;;;;;;;;;8264313;28;20422;-86
2022/05/23 15:45:16;;;;;;;2.65;1.90;;;;;;;;;;8263756;28;20387;-85
2022/05/23 15:49:20;;;;;;;4.00;2.25;;;;;;;;;;8262398;28;20057;-85
2022/05/23 15:53:23;;;;;;;3.00;2.10;;;;;;;;;;8263470;28;20113;-85
2022/05/23 15:57:30;;;;;;;6.03;2.10;;;;;;;;;;8262808;28;20054;-85
2022/05/23 16:01:33;;;;;;;4.57;2.20;;;;;;;;;;8260606;28;20084;-85
2022/05/23 16:05:38;;;;;;;5.82;2.40;;;;;;;;;;8260367;28;20097;-85
2022/05/23 16:26:41;;;;;;;6.38;2.42;;;;;;;;;;8118655;29;20052;-86
2022/05/23 16:31:44;;;;;;;;;;;;;;;;;;;;;
2022/05/23 16:36:55;;;;;;;5.82;3.90;;;;;;;;;;8201138;29;20056;-86
2022/05/23 16:51:42;;;;;;;6.82;4.78;;;;;;;;;;8109375;23;20155;-88
2022/05/23 16:55:46;;;;;;;6.20;3.97;;;;;;;;;;8324310;28;20056;-88
2022/05/23 16:59:50;;;;;;;9.32;6.07;;;;;;;;;;8324882;28;20518;-88
2022/05/23 17:03:56;;;;;;;16.10;12.68;;;;;;;;;;8324789;28;20065;-89
2022/05/23 17:08:00;;;;;;;5.32;3.78;;;;;;;;;;8326951;28;20076;-87
2022/05/23 17:12:05;;;;;;;4.95;3.72;;;;;;;;;;8325852;28;20045;-84
2022/05/23 17:16:09;;;;;;;6.63;4.18;;;;;;;;;;8326001;28;20140;-85
2022/05/23 17:20:14;;;;;;;10.63;6.75;;;;;;;;;;8325553;28;20076;-85
2022/05/23 17:24:19;;;;;;;7.45;4.20;;;;;;;;;;8325593;28;20049;-85
2022/05/23 17:28:24;;;;;;;5.85;2.92;;;;;;;;;;8325212;28;20132;-85
2022/05/23 17:32:27;;;;;;;3.63;2.67;;;;;;;;;;8325308;28;20050;-84
2022/05/23 17:36:31;;;;;;;4.57;2.75;;;;;;;;;;8324906;28;20057;-85
2022/05/23 17:40:35;;;;;;;4.15;2.50;;;;;;;;;;8325241;28;20046;-84
2022/05/23 17:44:39;;;;;;;5.07;2.80;;;;;;;;;;8323730;28;20099;-85
2022/05/23 17:48:42;;;;;;;3.40;2.25;;;;;;;;;;8317868;28;20041;-86
2022/05/23 17:52:48;;;;;;;5.15;2.10;;;;;;;;;;8321066;28;20483;-85
2022/05/23 17:56:53;;;;;;;7.32;3.65;;;;;;;;;;8322582;28;20045;-85
2022/05/23 18:00:57;;;;;;;10.32;5.00;;;;;;;;;;8285883;28;20080;-86
2022/05/23 18:05:02;;;;;;;19.05;4.15;;;;;;;;;;8319836;28;20493;-87
2022/05/23 18:09:18;;;;;;;5.65;3.63;;;;;;;;;;8329331;28;20412;-86
2022/05/23 18:13:28;;;;;;;10.48;6.38;;;;;;;;;;8323408;28;20088;-86
2022/05/23 18:22:16;;;;;;;6.13;3.50;;;;;;;;;;8333287;28;20111;-86
2022/05/23 18:26:20;;;;;;;7.70;3.30;;;;;;;;;;8332918;28;20053;-85
2022/05/23 18:30:31;;;;;;;4.75;3.03;;;;;;;;;;8332329;28;20038;-86
2022/05/23 18:34:42;;;;;;;4.67;3.20;;;;;;;;;;8326287;28;20083;-86
2022/05/23 18:38:49;;;;;;;7.35;3.58;;;;;;;;;;8325128;28;20722;-88
2022/05/23 18:42:58;;;;;;;7.03;4.10;;;;;;;;;;8330207;28;20523;-88
2022/05/23 18:47:05;;;;;;;10.23;6.30;;;;;;;;;;8334328;28;20132;-84
2022/05/23 18:51:09;;;;;;;8.35;5.07;;;;;;;;;;8334221;28;20069;-85
2022/05/23 18:55:13;;;;;;;11.05;7.22;;;;;;;;;;8334144;28;20041;-85
2022/05/23 18:59:17;;;;;;;9.35;3.90;;;;;;;;;;8333986;28;20052;-85
2022/05/23 19:03:24;;;;;;;8.00;3.55;;;;;;;;;;8333409;28;20049;-85
2022/05/23 19:07:29;;;;;;;5.20;3.53;;;;;;;;;;8333690;28;20047;-85
2022/05/23 19:11:55;;;;;;;6.63;3.97;;;;;;;;;;8333570;28;20468;-86
2022/05/23 19:15:59;;;;;;;6.05;3.13;;;;;;;;;;8333436;28;20486;-87
2022/05/23 19:20:09;;;;;;;5.90;3.83;;;;;;;;;;8329313;28;20692;-85
2022/05/23 19:24:16;;;;;;;6.95;4.55;;;;;;;;;;8333225;28;20077;-85
2022/05/23 19:28:22;;;;;;;9.57;5.88;;;;;;;;;;8331975;28;20053;-86
2022/05/23 19:32:27;;;;;;;11.35;6.65;;;;;;;;;;8332940;28;20046;-85
2022/05/23 19:36:50;;;;;;;12.30;8.57;;;;;;;;;;8332945;28;20091;-87
2022/05/23 19:41:06;;;;;;;11.73;7.18;;;;;;;;;;8328502;28;20124;-86
2022/05/23 19:45:15;;;;;;;9.82;6.57;;;;;;;;;;8331988;28;20048;-86
2022/05/23 19:49:19;;;;;;;13.57;6.57;;;;;;;;;;8332435;28;20045;-86
2022/05/23 19:53:24;;;;;;;7.55;4.82;;;;;;;;;;8332060;28;20136;-86
2022/05/23 19:57:27;;;;;;;7.95;4.90;;;;;;;;;;8331447;28;20103;-86
2022/05/23 20:07:01;;;;;;;8.07;4.40;;;;;;;;;;8330037;28;20080;-86
2022/05/23 20:10:16;;;;;;;6.18;4.05;;;;;;;;;;8330151;28;20478;-86
2022/05/23 20:14:19;;;;;;;6.75;5.00;;;;;;;;;;8330820;28;20045;-86
2022/05/23 20:18:24;;;;;;;9.48;5.45;;;;;;;;;;8331523;28;20049;-86
2022/05/23 20:22:27;;;;;;;6.45;4.68;;;;;;;;;;8331301;28;20046;-87
2022/05/23 20:26:32;;;;;;;7.95;4.40;;;;;;;;;;8331267;28;20060;-86
2022/05/23 20:30:37;;;;;;;7.82;4.72;;;;;;;;;;8332127;28;20051;-86
2022/05/23 20:34:40;;;;;;;12.40;5.07;;;;;;;;;;8331218;28;20045;-87
2022/05/23 20:38:43;;;;;;;7.45;4.63;;;;;;;;;;8330716;28;20052;-88
2022/05/23 20:42:49;;;;;;;7.35;4.28;;;;;;;;;;8330804;28;20079;-87
2022/05/23 20:46:55;;;;;;;8.88;4.90;;;;;;;;;;8330854;28;20172;-87
2022/05/23 20:50:58;;;;;;;7.75;4.20;;;;;;;;;;8331358;28;20060;-87
2022/05/23 20:55:01;;;;;;;6.93;4.70;;;;;;;;;;8330699;28;20099;-87
2022/05/23 20:59:05;;;;;;;7.38;4.78;;;;;;;;;;8330999;28;20485;-87
2022/05/23 21:03:09;;;;;;;8.15;4.82;;;;;;;;;;8330497;28;20052;-88
2022/05/23 21:07:12;;;;;;;8.52;4.88;;;;;;;;;;8330363;28;20045;-87
2022/05/23 21:11:16;;;;;;;7.63;4.65;;;;;;;;;;8330254;28;20045;-88
2022/05/23 21:15:23;;;;;;;10.18;4.55;;;;;;;;;;8330263;28;20045;-88
2022/05/23 21:19:26;;;;;;;9.18;4.53;;;;;;;;;;8330223;28;20045;-88
2022/05/23 21:23:29;;;;;;;6.38;4.72;;;;;;;;;;8329987;28;20119;-88
2022/05/23 21:27:32;;;;;;;6.45;4.28;;;;;;;;;;8329962;28;20481;-88
2022/05/23 21:31:36;;;;;;;9.40;5.18;;;;;;;;;;8330026;28;20045;-87
2022/05/23 21:35:40;;;;;;;8.27;4.93;;;;;;;;;;8329863;28;20049;-89
2022/05/23 21:46:28;;;;;;;7.57;4.68;;;;;;;;;;8329963;28;20053;-89
2022/05/23 21:48:27;;;;;;;9.05;4.05;;;;;;;;;;8329951;28;20045;-89
2022/05/23 21:52:31;;;;;;;8.13;4.80;;;;;;;;;;8336027;28;20110;-89
2022/05/23 21:56:34;;;;;;;6.90;4.53;;;;;;;;;;8335947;28;20140;-88
2022/05/23 22:00:42;;;;;;;7.10;4.47;;;;;;;;;;8335837;28;20094;-89
2022/05/23 22:04:47;;;;;;;8.60;4.40;;;;;;;;;;8335687;28;20103;-87
2022/05/23 22:08:52;;;;;;;7.07;4.40;;;;;;;;;;8335073;28;20041;-88
2022/05/23 22:12:55;;;;;;;7.75;4.93;;;;;;;;;;8335899;28;20057;-88
2022/05/23 22:16:58;;;;;;;9.10;4.60;;;;;;;;;;8335279;28;20501;-87
2022/05/23 22:21:02;;;;;;;9.00;4.72;;;;;;;;;;8335304;28;20072;-87
2022/05/23 22:25:06;;;;;;;8.45;4.90;;;;;;;;;;8335079;28;20049;-88
2022/05/23 22:29:09;;;;;;;9.05;5.15;;;;;;;;;;8334935;28;20049;-89
2022/05/23 22:33:11;;;;;;;7.55;4.43;;;;;;;;;;8334949;28;20493;-88
2022/05/23 22:37:16;;;;;;;7.10;4.63;;;;;;;;;;8334824;28;20124;-88
2022/05/23 22:41:19;;;;;;;8.93;4.72;;;;;;;;;;8334647;28;20492;-87
2022/05/23 22:45:22;;;;;;;7.10;4.43;;;;;;;;;;8334467;28;20050;-87
2022/05/23 22:49:25;;;;;;;8.80;4.90;;;;;;;;;;8334405;28;20456;-88
2022/05/23 22:53:29;;;;;;;7.47;4.82;;;;;;;;;;8333983;28;20053;-88
2022/05/23 22:57:33;;;;;;;7.90;5.28;;;;;;;;;;8334235;28;20045;-89
2022/05/23 23:01:35;;;;;;;8.90;4.95;;;;;;;;;;8333752;28;20048;-88
2022/05/23 23:05:37;;;;;;;7.30;4.95;;;;;;;;;;8327603;28;20095;-89
2022/05/23 23:09:43;;;;;;;7.95;5.15;;;;;;;;;;8332560;28;20037;-88
2022/05/23 23:13:47;;;;;;;7.85;4.53;;;;;;;;;;8333459;28;20092;-88
2022/05/23 23:17:50;;;;;;;7.72;4.43;;;;;;;;;;8333486;28;20053;-88
2022/05/23 23:21:52;;;;;;;5.55;4.32;;;;;;;;;;8333224;28;20099;-88
2022/05/23 23:25:57;;;;;;;8.25;4.72;;;;;;;;;;8333265;28;20080;-89
2022/05/23 23:30:00;;;;;;;8.52;4.65;;;;;;;;;;8333050;28;20053;-88
2022/05/23 23:38:23;;;;;;;6.63;4.35;;;;;;;;;;8326524;28;20068;-89
2022/05/23 23:42:27;;;;;;;6.88;4.78;;;;;;;;;;8332741;28;20037;-89
2022/05/23 23:46:29;;;;;;;7.32;4.88;;;;;;;;;;8331699;28;20045;-89
2022/05/23 23:50:32;;;;;;;6.90;4.57;;;;;;;;;;8332169;28;20103;-89
2022/05/23 23:54:35;;;;;;;9.65;4.68;;;;;;;;;;8332485;28;20041;-89
2022/05/23 23:58:39;;;;;;;6.72;4.28;;;;;;;;;;8332249;28;20140;-89
